sensor_id;sensor_type;location;lat;lon;timestamp;P1;durP1;ratioP1;P2;durP2;ratioP2
39218;SDS011;24934;52.752;6.964;2023-05-15T00:00:11;103.53;;;57.17;;
39218;SDS011;24934;52.752;6.964;2023-05-15T00:02:37;108.40;;;59.37;;
39218;SDS011;24934;52.752;6.964;2023-05-15T00:05:04;117.03;;;60.70;;
39218;SDS011;24934;52.752;6.964;2023-05-15T00:07:30;120.63;;;60.27;;
39218;SDS011;24934;52.752;6.964;2023-05-15T00:09:56;119.20;;;60.67;;
39218;SDS011;24934;52.752;6.964;2023-05-15T00:12:28;123.67;;;61.47;;
39218;SDS011;24934;52.752;6.964;2023-05-15T00:14:53;137.90;;;63.47;;
39218;SDS011;24934;52.752;6.964;2023-05-15T00:17:19;124.90;;;61.67;;
39218;SDS011;24934;52.752;6.964;2023-05-15T00:19:45;128.23;;;60.08;;
39218;SDS011;24934;52.752;6.964;2023-05-15T00:22:12;120.25;;;60.67;;
39218;SDS011;24934;52.752;6.964;2023-05-15T00:24:37;128.85;;;62.15;;
39218;SDS011;24934;52.752;6.964;2023-05-15T00:27:03;128.47;;;62.07;;
39218;SDS011;24934;52.752;6.964;2023-05-15T00:29:29;123.78;;;60.78;;
39218;SDS011;24934;52.752;6.964;2023-05-15T00:31:55;126.57;;;60.95;;
39218;SDS011;24934;52.752;6.964;2023-05-15T00:34:21;127.63;;;61.00;;
39218;SDS011;24934;52.752;6.964;2023-05-15T00:36:46;122.53;;;60.83;;
39218;SDS011;24934;52.752;6.964;2023-05-15T00:39:12;127.25;;;61.05;;
39218;SDS011;24934;52.752;6.964;2023-05-15T00:41:41;124.22;;;61.42;;
39218;SDS011;24934;52.752;6.964;2023-05-15T00:44:08;117.57;;;59.50;;
39218;SDS011;24934;52.752;6.964;2023-05-15T00:46:39;117.50;;;59.10;;
39218;SDS011;24934;52.752;6.964;2023-05-15T00:49:05;114.47;;;58.83;;
39218;SDS011;24934;52.752;6.964;2023-05-15T00:51:37;120.05;;;59.40;;
39218;SDS011;24934;52.752;6.964;2023-05-15T00:54:05;120.93;;;59.58;;
39218;SDS011;24934;52.752;6.964;2023-05-15T00:56:31;122.95;;;60.15;;
39218;SDS011;24934;52.752;6.964;2023-05-15T00:58:58;119.30;;;60.05;;
39218;SDS011;24934;52.752;6.964;2023-05-15T01:01:25;111.20;;;57.83;;
39218;SDS011;24934;52.752;6.964;2023-05-15T01:03:50;111.20;;;57.75;;
39218;SDS011;24934;52.752;6.964;2023-05-15T01:06:16;112.65;;;58.63;;
39218;SDS011;24934;52.752;6.964;2023-05-15T01:08:44;107.00;;;56.42;;
39218;SDS011;24934;52.752;6.964;2023-05-15T01:11:11;113.05;;;57.08;;
39218;SDS011;24934;52.752;6.964;2023-05-15T01:13:38;110.75;;;56.88;;
39218;SDS011;24934;52.752;6.964;2023-05-15T01:16:05;110.28;;;56.88;;
39218;SDS011;24934;52.752;6.964;2023-05-15T01:18:31;101.68;;;53.75;;
39218;SDS011;24934;52.752;6.964;2023-05-15T01:23:56;113.55;;;58.60;;
39218;SDS011;24934;52.752;6.964;2023-05-15T01:29:26;116.22;;;56.65;;
39218;SDS011;24934;52.752;6.964;2023-05-15T01:32:01;109.03;;;57.50;;
39218;SDS011;24934;52.752;6.964;2023-05-15T01:34:31;114.30;;;58.70;;
39218;SDS011;24934;52.752;6.964;2023-05-15T01:37:04;115.38;;;59.33;;
39218;SDS011;24934;52.752;6.964;2023-05-15T01:39:33;116.30;;;57.35;;
39218;SDS011;24934;52.752;6.964;2023-05-15T01:42:05;116.82;;;56.78;;
39218;SDS011;24934;52.752;6.964;2023-05-15T01:44:34;112.53;;;57.65;;
39218;SDS011;24934;52.752;6.964;2023-05-15T01:47:09;109.65;;;56.85;;
39218;SDS011;24934;52.752;6.964;2023-05-15T01:49:38;116.28;;;56.55;;
39218;SDS011;24934;52.752;6.964;2023-05-15T01:52:15;116.40;;;57.33;;
39218;SDS011;24934;52.752;6.964;2023-05-15T01:54:52;115.50;;;57.92;;
39218;SDS011;24934;52.752;6.964;2023-05-15T01:57:19;117.60;;;57.83;;
39218;SDS011;24934;52.752;6.964;2023-05-15T01:59:47;117.15;;;58.92;;
39218;SDS011;24934;52.752;6.964;2023-05-15T02:02:14;115.78;;;59.15;;
39218;SDS011;24934;52.752;6.964;2023-05-15T02:04:41;117.45;;;59.95;;
39218;SDS011;24934;52.752;6.964;2023-05-15T02:07:09;117.60;;;58.63;;
39218;SDS011;24934;52.752;6.964;2023-05-15T02:09:35;108.10;;;58.35;;
39218;SDS011;24934;52.752;6.964;2023-05-15T02:12:01;115.68;;;59.67;;
39218;SDS011;24934;52.752;6.964;2023-05-15T02:14:28;111.93;;;59.63;;
39218;SDS011;24934;52.752;6.964;2023-05-15T02:16:54;113.95;;;60.67;;
39218;SDS011;24934;52.752;6.964;2023-05-15T02:19:20;108.85;;;58.65;;
39218;SDS011;24934;52.752;6.964;2023-05-15T02:21:46;107.55;;;59.25;;
39218;SDS011;24934;52.752;6.964;2023-05-15T02:24:11;110.45;;;59.05;;
39218;SDS011;24934;52.752;6.964;2023-05-15T02:29:22;112.97;;;59.47;;
39218;SDS011;24934;52.752;6.964;2023-05-15T02:32:13;105.33;;;58.00;;
39218;SDS011;24934;52.752;6.964;2023-05-15T02:37:46;111.23;;;57.13;;
39218;SDS011;24934;52.752;6.964;2023-05-15T02:40:15;105.37;;;57.77;;
39218;SDS011;24934;52.752;6.964;2023-05-15T02:42:41;95.80;;;56.70;;
39218;SDS011;24934;52.752;6.964;2023-05-15T02:45:10;104.63;;;57.57;;
39218;SDS011;24934;52.752;6.964;2023-05-15T02:47:36;111.87;;;59.83;;
39218;SDS011;24934;52.752;6.964;2023-05-15T02:50:03;103.53;;;57.33;;
39218;SDS011;24934;52.752;6.964;2023-05-15T02:52:30;95.73;;;55.23;;
39218;SDS011;24934;52.752;6.964;2023-05-15T02:55:00;103.05;;;55.03;;
39218;SDS011;24934;52.752;6.964;2023-05-15T02:57:26;99.33;;;55.63;;
39218;SDS011;24934;52.752;6.964;2023-05-15T02:59:52;107.20;;;57.80;;
39218;SDS011;24934;52.752;6.964;2023-05-15T03:02:18;109.63;;;55.70;;
39218;SDS011;24934;52.752;6.964;2023-05-15T03:04:44;102.00;;;56.60;;
39218;SDS011;24934;52.752;6.964;2023-05-15T03:07:10;110.13;;;57.63;;
39218;SDS011;24934;52.752;6.964;2023-05-15T03:09:38;99.33;;;56.03;;
39218;SDS011;24934;52.752;6.964;2023-05-15T03:12:04;98.30;;;56.60;;
39218;SDS011;24934;52.752;6.964;2023-05-15T03:14:30;99.43;;;55.70;;
39218;SDS011;24934;52.752;6.964;2023-05-15T03:16:56;107.37;;;52.43;;
39218;SDS011;24934;52.752;6.964;2023-05-15T03:19:24;92.23;;;53.73;;
39218;SDS011;24934;52.752;6.964;2023-05-15T03:21:50;94.00;;;53.90;;
39218;SDS011;24934;52.752;6.964;2023-05-15T03:24:15;104.18;;;54.10;;
39218;SDS011;24934;52.752;6.964;2023-05-15T03:26:41;92.80;;;53.87;;
39218;SDS011;24934;52.752;6.964;2023-05-15T03:29:08;98.20;;;51.17;;
39218;SDS011;24934;52.752;6.964;2023-05-15T03:31:33;101.40;;;49.47;;
39218;SDS011;24934;52.752;6.964;2023-05-15T03:33:59;90.07;;;51.70;;
39218;SDS011;24934;52.752;6.964;2023-05-15T03:36:25;90.80;;;51.17;;
39218;SDS011;24934;52.752;6.964;2023-05-15T03:38:50;97.00;;;53.90;;
39218;SDS011;24934;52.752;6.964;2023-05-15T03:41:16;104.37;;;50.20;;
39218;SDS011;24934;52.752;6.964;2023-05-15T03:43:41;97.37;;;50.93;;
39218;SDS011;24934;52.752;6.964;2023-05-15T03:46:07;87.83;;;52.47;;
39218;SDS011;24934;52.752;6.964;2023-05-15T03:48:33;91.63;;;51.30;;
39218;SDS011;24934;52.752;6.964;2023-05-15T03:50:58;115.43;;;48.43;;
39218;SDS011;24934;52.752;6.964;2023-05-15T03:53:24;91.10;;;53.40;;
39218;SDS011;24934;52.752;6.964;2023-05-15T03:55:50;126.10;;;50.53;;
39218;SDS011;24934;52.752;6.964;2023-05-15T03:58:15;120.53;;;52.57;;
39218;SDS011;24934;52.752;6.964;2023-05-15T04:00:41;93.80;;;51.50;;
39218;SDS011;24934;52.752;6.964;2023-05-15T04:03:08;94.77;;;52.67;;
39218;SDS011;24934;52.752;6.964;2023-05-15T04:05:33;106.03;;;52.87;;
39218;SDS011;24934;52.752;6.964;2023-05-15T04:07:59;89.23;;;53.37;;
39218;SDS011;24934;52.752;6.964;2023-05-15T04:10:27;94.10;;;54.30;;
39218;SDS011;24934;52.752;6.964;2023-05-15T04:12:53;90.10;;;51.53;;
39218;SDS011;24934;52.752;6.964;2023-05-15T04:15:23;93.73;;;53.97;;
39218;SDS011;24934;52.752;6.964;2023-05-15T04:17:51;95.67;;;53.03;;
39218;SDS011;24934;52.752;6.964;2023-05-15T04:20:19;92.40;;;52.80;;
39218;SDS011;24934;52.752;6.964;2023-05-15T04:22:49;95.03;;;52.03;;
39218;SDS011;24934;52.752;6.964;2023-05-15T04:25:15;84.13;;;51.05;;
39218;SDS011;24934;52.752;6.964;2023-05-15T04:27:42;86.87;;;50.80;;
39218;SDS011;24934;52.752;6.964;2023-05-15T04:30:08;84.32;;;50.63;;
39218;SDS011;24934;52.752;6.964;2023-05-15T04:32:35;83.87;;;50.10;;
39218;SDS011;24934;52.752;6.964;2023-05-15T04:35:02;81.88;;;50.45;;
39218;SDS011;24934;52.752;6.964;2023-05-15T04:37:36;87.20;;;48.97;;
39218;SDS011;24934;52.752;6.964;2023-05-15T04:40:02;84.40;;;49.07;;
39218;SDS011;24934;52.752;6.964;2023-05-15T04:42:28;85.10;;;52.13;;
39218;SDS011;24934;52.752;6.964;2023-05-15T04:44:54;89.13;;;51.83;;
39218;SDS011;24934;52.752;6.964;2023-05-15T04:47:19;89.23;;;50.80;;
39218;SDS011;24934;52.752;6.964;2023-05-15T04:49:45;83.07;;;50.07;;
39218;SDS011;24934;52.752;6.964;2023-05-15T04:52:14;85.87;;;50.93;;
39218;SDS011;24934;52.752;6.964;2023-05-15T04:54:40;82.90;;;50.77;;
39218;SDS011;24934;52.752;6.964;2023-05-15T04:57:06;89.87;;;52.57;;
39218;SDS011;24934;52.752;6.964;2023-05-15T04:59:31;82.73;;;49.80;;
39218;SDS011;24934;52.752;6.964;2023-05-15T05:01:57;83.50;;;50.15;;
39218;SDS011;24934;52.752;6.964;2023-05-15T05:04:23;83.80;;;49.27;;
39218;SDS011;24934;52.752;6.964;2023-05-15T05:06:48;80.77;;;48.43;;
39218;SDS011;24934;52.752;6.964;2023-05-15T05:09:14;86.70;;;50.43;;
39218;SDS011;24934;52.752;6.964;2023-05-15T05:11:40;89.10;;;52.73;;
39218;SDS011;24934;52.752;6.964;2023-05-15T05:14:08;89.30;;;51.30;;
39218;SDS011;24934;52.752;6.964;2023-05-15T05:16:34;89.32;;;51.50;;
39218;SDS011;24934;52.752;6.964;2023-05-15T05:19:00;86.73;;;50.13;;
39218;SDS011;24934;52.752;6.964;2023-05-15T05:21:26;88.13;;;50.17;;
39218;SDS011;24934;52.752;6.964;2023-05-15T05:23:51;82.15;;;51.28;;
39218;SDS011;24934;52.752;6.964;2023-05-15T05:26:17;80.85;;;50.08;;
39218;SDS011;24934;52.752;6.964;2023-05-15T05:28:45;79.93;;;48.30;;
39218;SDS011;24934;52.752;6.964;2023-05-15T05:31:14;77.80;;;48.30;;
39218;SDS011;24934;52.752;6.964;2023-05-15T05:33:49;79.40;;;48.53;;
39218;SDS011;24934;52.752;6.964;2023-05-15T05:36:16;82.40;;;49.80;;
39218;SDS011;24934;52.752;6.964;2023-05-15T05:38:44;81.93;;;50.17;;
39218;SDS011;24934;52.752;6.964;2023-05-15T05:41:10;83.10;;;49.80;;
39218;SDS011;24934;52.752;6.964;2023-05-15T05:43:36;79.10;;;49.00;;
39218;SDS011;24934;52.752;6.964;2023-05-15T05:46:02;80.00;;;50.13;;
39218;SDS011;24934;52.752;6.964;2023-05-15T05:48:27;77.87;;;48.67;;
39218;SDS011;24934;52.752;6.964;2023-05-15T05:50:54;80.50;;;48.75;;
39218;SDS011;24934;52.752;6.964;2023-05-15T05:53:19;81.30;;;49.70;;
39218;SDS011;24934;52.752;6.964;2023-05-15T05:55:45;76.78;;;47.03;;
39218;SDS011;24934;52.752;6.964;2023-05-15T05:58:11;72.50;;;48.13;;
39218;SDS011;24934;52.752;6.964;2023-05-15T06:00:41;79.07;;;47.17;;
39218;SDS011;24934;52.752;6.964;2023-05-15T06:03:07;72.10;;;47.00;;
39218;SDS011;24934;52.752;6.964;2023-05-15T06:05:33;69.65;;;44.75;;
39218;SDS011;24934;52.752;6.964;2023-05-15T06:07:58;63.63;;;43.33;;
39218;SDS011;24934;52.752;6.964;2023-05-15T06:10:26;63.42;;;40.53;;
39218;SDS011;24934;52.752;6.964;2023-05-15T06:12:55;61.13;;;41.13;;
39218;SDS011;24934;52.752;6.964;2023-05-15T06:15:22;62.93;;;42.27;;
39218;SDS011;24934;52.752;6.964;2023-05-15T06:17:48;62.65;;;43.22;;
39218;SDS011;24934;52.752;6.964;2023-05-15T06:20:14;63.13;;;43.15;;
39218;SDS011;24934;52.752;6.964;2023-05-15T06:22:40;62.53;;;42.58;;
39218;SDS011;24934;52.752;6.964;2023-05-15T06:25:06;61.07;;;41.57;;
39218;SDS011;24934;52.752;6.964;2023-05-15T06:27:32;59.92;;;41.08;;
39218;SDS011;24934;52.752;6.964;2023-05-15T06:29:58;56.70;;;39.67;;
39218;SDS011;24934;52.752;6.964;2023-05-15T06:32:24;59.70;;;41.75;;
39218;SDS011;24934;52.752;6.964;2023-05-15T06:34:50;59.08;;;40.88;;
39218;SDS011;24934;52.752;6.964;2023-05-15T06:37:16;57.10;;;41.50;;
39218;SDS011;24934;52.752;6.964;2023-05-15T06:39:42;61.45;;;40.47;;
39218;SDS011;24934;52.752;6.964;2023-05-15T06:42:10;65.22;;;44.08;;
39218;SDS011;24934;52.752;6.964;2023-05-15T06:44:36;61.35;;;41.67;;
39218;SDS011;24934;52.752;6.964;2023-05-15T06:47:09;62.92;;;42.15;;
39218;SDS011;24934;52.752;6.964;2023-05-15T06:49:34;62.10;;;41.97;;
39218;SDS011;24934;52.752;6.964;2023-05-15T06:52:00;59.83;;;42.05;;
39218;SDS011;24934;52.752;6.964;2023-05-15T06:54:26;57.80;;;39.58;;
39218;SDS011;24934;52.752;6.964;2023-05-15T06:56:51;64.50;;;43.10;;
39218;SDS011;24934;52.752;6.964;2023-05-15T06:59:17;64.93;;;42.03;;
39218;SDS011;24934;52.752;6.964;2023-05-15T07:01:43;63.47;;;41.57;;
39218;SDS011;24934;52.752;6.964;2023-05-15T07:04:09;62.35;;;40.58;;
39218;SDS011;24934;52.752;6.964;2023-05-15T07:06:34;60.50;;;38.37;;
39218;SDS011;24934;52.752;6.964;2023-05-15T07:09:01;58.22;;;37.83;;
39218;SDS011;24934;52.752;6.964;2023-05-15T07:11:27;56.75;;;37.72;;
39218;SDS011;24934;52.752;6.964;2023-05-15T07:13:53;62.03;;;39.03;;
39218;SDS011;24934;52.752;6.964;2023-05-15T07:16:19;55.70;;;37.97;;
39218;SDS011;24934;52.752;6.964;2023-05-15T07:18:44;51.85;;;37.33;;
39218;SDS011;24934;52.752;6.964;2023-05-15T07:21:10;54.88;;;36.65;;
39218;SDS011;24934;52.752;6.964;2023-05-15T07:23:36;46.35;;;33.92;;
39218;SDS011;24934;52.752;6.964;2023-05-15T07:26:01;49.53;;;35.42;;
39218;SDS011;24934;52.752;6.964;2023-05-15T07:28:27;47.88;;;34.63;;
39218;SDS011;24934;52.752;6.964;2023-05-15T07:30:53;45.25;;;32.92;;
39218;SDS011;24934;52.752;6.964;2023-05-15T07:33:18;42.83;;;33.50;;
39218;SDS011;24934;52.752;6.964;2023-05-15T07:35:44;45.28;;;34.85;;
39218;SDS011;24934;52.752;6.964;2023-05-15T07:38:10;42.75;;;32.45;;
39218;SDS011;24934;52.752;6.964;2023-05-15T07:40:36;41.78;;;32.17;;
39218;SDS011;24934;52.752;6.964;2023-05-15T07:43:02;37.35;;;30.40;;
39218;SDS011;24934;52.752;6.964;2023-05-15T07:45:28;39.13;;;32.15;;
39218;SDS011;24934;52.752;6.964;2023-05-15T07:47:53;39.25;;;31.77;;
39218;SDS011;24934;52.752;6.964;2023-05-15T07:50:19;42.22;;;32.65;;
39218;SDS011;24934;52.752;6.964;2023-05-15T07:52:45;36.22;;;30.80;;
39218;SDS011;24934;52.752;6.964;2023-05-15T07:55:11;34.13;;;29.48;;
39218;SDS011;24934;52.752;6.964;2023-05-15T07:57:37;32.95;;;28.48;;
39218;SDS011;24934;52.752;6.964;2023-05-15T08:00:04;31.98;;;27.58;;
39218;SDS011;24934;52.752;6.964;2023-05-15T08:02:34;31.13;;;27.08;;
39218;SDS011;24934;52.752;6.964;2023-05-15T08:05:00;28.73;;;25.73;;
39218;SDS011;24934;52.752;6.964;2023-05-15T08:07:26;30.30;;;27.00;;
39218;SDS011;24934;52.752;6.964;2023-05-15T08:09:52;30.33;;;27.15;;
39218;SDS011;24934;52.752;6.964;2023-05-15T08:12:20;31.20;;;27.10;;
39218;SDS011;24934;52.752;6.964;2023-05-15T08:14:50;29.98;;;26.77;;
39218;SDS011;24934;52.752;6.964;2023-05-15T08:17:16;29.63;;;26.52;;
39218;SDS011;24934;52.752;6.964;2023-05-15T08:19:43;28.52;;;25.52;;
39218;SDS011;24934;52.752;6.964;2023-05-15T08:22:09;27.75;;;24.85;;
39218;SDS011;24934;52.752;6.964;2023-05-15T08:24:35;27.63;;;24.75;;
39218;SDS011;24934;52.752;6.964;2023-05-15T08:27:02;27.50;;;24.85;;
39218;SDS011;24934;52.752;6.964;2023-05-15T08:29:29;26.83;;;24.23;;
39218;SDS011;24934;52.752;6.964;2023-05-15T08:31:54;27.10;;;24.40;;
39218;SDS011;24934;52.752;6.964;2023-05-15T08:34:20;28.05;;;25.23;;
39218;SDS011;24934;52.752;6.964;2023-05-15T08:36:45;28.63;;;25.70;;
39218;SDS011;24934;52.752;6.964;2023-05-15T08:39:11;26.00;;;23.38;;
39218;SDS011;24934;52.752;6.964;2023-05-15T08:41:39;27.83;;;25.13;;
39218;SDS011;24934;52.752;6.964;2023-05-15T08:44:28;26.17;;;23.67;;
39218;SDS011;24934;52.752;6.964;2023-05-15T08:46:56;26.10;;;23.60;;
39218;SDS011;24934;52.752;6.964;2023-05-15T08:52:01;25.35;;;22.98;;
39218;SDS011;24934;52.752;6.964;2023-05-15T08:54:28;26.20;;;23.60;;
39218;SDS011;24934;52.752;6.964;2023-05-15T08:56:54;25.20;;;22.67;;
39218;SDS011;24934;52.752;6.964;2023-05-15T08:59:19;23.92;;;21.70;;
39218;SDS011;24934;52.752;6.964;2023-05-15T09:01:46;23.65;;;21.35;;
39218;SDS011;24934;52.752;6.964;2023-05-15T09:04:12;24.23;;;21.88;;
39218;SDS011;24934;52.752;6.964;2023-05-15T09:06:38;23.10;;;20.90;;
39218;SDS011;24934;52.752;6.964;2023-05-15T09:09:05;23.75;;;21.35;;
39218;SDS011;24934;52.752;6.964;2023-05-15T09:11:32;22.73;;;20.73;;
39218;SDS011;24934;52.752;6.964;2023-05-15T09:13:59;22.73;;;20.48;;
39218;SDS011;24934;52.752;6.964;2023-05-15T09:16:25;21.27;;;19.38;;
39218;SDS011;24934;52.752;6.964;2023-05-15T09:18:51;22.40;;;20.50;;
39218;SDS011;24934;52.752;6.964;2023-05-15T09:21:24;22.80;;;20.70;;
39218;SDS011;24934;52.752;6.964;2023-05-15T09:23:54;22.70;;;20.42;;
39218;SDS011;24934;52.752;6.964;2023-05-15T09:26:40;22.52;;;20.52;;
39218;SDS011;24934;52.752;6.964;2023-05-15T09:29:06;22.02;;;20.02;;
39218;SDS011;24934;52.752;6.964;2023-05-15T09:31:32;22.15;;;19.90;;
39218;SDS011;24934;52.752;6.964;2023-05-15T09:34:02;21.35;;;19.35;;
39218;SDS011;24934;52.752;6.964;2023-05-15T09:36:33;20.05;;;18.27;;
39218;SDS011;24934;52.752;6.964;2023-05-15T09:38:59;20.63;;;18.63;;
39218;SDS011;24934;52.752;6.964;2023-05-15T09:41:25;21.00;;;19.17;;
39218;SDS011;24934;52.752;6.964;2023-05-15T09:43:52;20.52;;;18.63;;
39218;SDS011;24934;52.752;6.964;2023-05-15T09:46:20;21.02;;;19.13;;
39218;SDS011;24934;52.752;6.964;2023-05-15T09:48:47;20.65;;;18.35;;
39218;SDS011;24934;52.752;6.964;2023-05-15T09:51:13;20.17;;;18.48;;
39218;SDS011;24934;52.752;6.964;2023-05-15T09:53:41;19.70;;;17.80;;
39218;SDS011;24934;52.752;6.964;2023-05-15T09:56:07;20.20;;;18.30;;
39218;SDS011;24934;52.752;6.964;2023-05-15T09:58:34;20.55;;;18.85;;
39218;SDS011;24934;52.752;6.964;2023-05-15T10:01:00;20.63;;;18.88;;
39218;SDS011;24934;52.752;6.964;2023-05-15T10:03:27;19.70;;;18.00;;
39218;SDS011;24934;52.752;6.964;2023-05-15T10:05:58;20.38;;;18.40;;
39218;SDS011;24934;52.752;6.964;2023-05-15T10:08:28;20.52;;;18.73;;
39218;SDS011;24934;52.752;6.964;2023-05-15T10:10:58;20.48;;;18.38;;
39218;SDS011;24934;52.752;6.964;2023-05-15T10:13:25;19.60;;;17.65;;
39218;SDS011;24934;52.752;6.964;2023-05-15T10:15:52;17.88;;;16.17;;
39218;SDS011;24934;52.752;6.964;2023-05-15T10:18:18;17.63;;;15.98;;
39218;SDS011;24934;52.752;6.964;2023-05-15T10:20:46;17.55;;;15.80;;
39218;SDS011;24934;52.752;6.964;2023-05-15T10:23:13;19.98;;;16.23;;
39218;SDS011;24934;52.752;6.964;2023-05-15T10:25:49;17.35;;;15.70;;
39218;SDS011;24934;52.752;6.964;2023-05-15T10:28:30;16.38;;;14.90;;
39218;SDS011;24934;52.752;6.964;2023-05-15T10:31:00;18.45;;;13.95;;
39218;SDS011;24934;52.752;6.964;2023-05-15T10:33:29;14.95;;;13.45;;
39218;SDS011;24934;52.752;6.964;2023-05-15T10:35:57;15.07;;;13.70;;
39218;SDS011;24934;52.752;6.964;2023-05-15T10:38:23;14.93;;;13.48;;
39218;SDS011;24934;52.752;6.964;2023-05-15T10:40:51;16.90;;;14.63;;
39218;SDS011;24934;52.752;6.964;2023-05-15T10:43:18;15.23;;;12.95;;
39218;SDS011;24934;52.752;6.964;2023-05-15T10:45:45;14.55;;;13.25;;
39218;SDS011;24934;52.752;6.964;2023-05-15T10:48:11;16.65;;;15.02;;
39218;SDS011;24934;52.752;6.964;2023-05-15T10:50:39;16.67;;;15.10;;
39218;SDS011;24934;52.752;6.964;2023-05-15T10:53:05;16.73;;;14.98;;
39218;SDS011;24934;52.752;6.964;2023-05-15T10:55:33;16.20;;;14.80;;
39218;SDS011;24934;52.752;6.964;2023-05-15T10:58:07;16.10;;;14.43;;
39218;SDS011;24934;52.752;6.964;2023-05-15T11:00:35;15.13;;;13.82;;
39218;SDS011;24934;52.752;6.964;2023-05-15T11:03:06;15.15;;;13.75;;
39218;SDS011;24934;52.752;6.964;2023-05-15T11:06:05;15.98;;;14.65;;
39218;SDS011;24934;52.752;6.964;2023-05-15T11:08:40;16.30;;;14.93;;
39218;SDS011;24934;52.752;6.964;2023-05-15T11:11:18;18.02;;;16.40;;
39218;SDS011;24934;52.752;6.964;2023-05-15T11:14:18;17.65;;;16.00;;
39218;SDS011;24934;52.752;6.964;2023-05-15T11:21:57;16.20;;;14.85;;
39218;SDS011;24934;52.752;6.964;2023-05-15T11:24:28;15.90;;;14.52;;
39218;SDS011;24934;52.752;6.964;2023-05-15T11:26:59;15.95;;;14.50;;
39218;SDS011;24934;52.752;6.964;2023-05-15T11:29:25;15.70;;;14.27;;
39218;SDS011;24934;52.752;6.964;2023-05-15T11:31:51;14.40;;;13.20;;
39218;SDS011;24934;52.752;6.964;2023-05-15T11:34:32;14.95;;;13.65;;
39218;SDS011;24934;52.752;6.964;2023-05-15T11:36:59;15.52;;;14.20;;
39218;SDS011;24934;52.752;6.964;2023-05-15T11:39:25;16.50;;;14.82;;
39218;SDS011;24934;52.752;6.964;2023-05-15T11:41:52;16.98;;;15.23;;
39218;SDS011;24934;52.752;6.964;2023-05-15T11:44:22;15.85;;;14.35;;
39218;SDS011;24934;52.752;6.964;2023-05-15T11:46:51;15.38;;;14.18;;
39218;SDS011;24934;52.752;6.964;2023-05-15T11:49:20;13.57;;;12.43;;
39218;SDS011;24934;52.752;6.964;2023-05-15T11:51:48;13.23;;;12.13;;
39218;SDS011;24934;52.752;6.964;2023-05-15T11:54:15;15.02;;;13.60;;
39218;SDS011;24934;52.752;6.964;2023-05-15T11:56:46;16.00;;;14.50;;
39218;SDS011;24934;52.752;6.964;2023-05-15T11:59:12;16.10;;;14.68;;
39218;SDS011;24934;52.752;6.964;2023-05-15T12:01:41;16.23;;;14.82;;
39218;SDS011;24934;52.752;6.964;2023-05-15T12:04:12;16.17;;;14.75;;
39218;SDS011;24934;52.752;6.964;2023-05-15T12:06:39;16.17;;;14.82;;
39218;SDS011;24934;52.752;6.964;2023-05-15T12:09:05;18.10;;;16.33;;
39218;SDS011;24934;52.752;6.964;2023-05-15T12:11:32;17.90;;;16.40;;
39218;SDS011;24934;52.752;6.964;2023-05-15T12:13:58;17.58;;;15.98;;
39218;SDS011;24934;52.752;6.964;2023-05-15T12:16:24;18.45;;;16.85;;
39218;SDS011;24934;52.752;6.964;2023-05-15T12:18:50;17.70;;;16.20;;
39218;SDS011;24934;52.752;6.964;2023-05-15T12:21:16;15.75;;;14.40;;
39218;SDS011;24934;52.752;6.964;2023-05-15T12:23:52;17.23;;;15.63;;
39218;SDS011;24934;52.752;6.964;2023-05-15T12:26:19;18.35;;;16.75;;
39218;SDS011;24934;52.752;6.964;2023-05-15T12:28:48;18.73;;;16.95;;
39218;SDS011;24934;52.752;6.964;2023-05-15T12:31:14;17.73;;;16.02;;
39218;SDS011;24934;52.752;6.964;2023-05-15T12:33:41;18.48;;;16.88;;
39218;SDS011;24934;52.752;6.964;2023-05-15T12:36:07;19.50;;;17.70;;
39218;SDS011;24934;52.752;6.964;2023-05-15T12:38:34;18.88;;;16.48;;
39218;SDS011;24934;52.752;6.964;2023-05-15T12:41:00;19.00;;;17.05;;
39218;SDS011;24934;52.752;6.964;2023-05-15T12:43:26;17.70;;;16.15;;
39218;SDS011;24934;52.752;6.964;2023-05-15T12:45:53;15.93;;;14.57;;
39218;SDS011;24934;52.752;6.964;2023-05-15T12:48:22;16.73;;;15.27;;
39218;SDS011;24934;52.752;6.964;2023-05-15T12:50:53;20.00;;;18.30;;
39218;SDS011;24934;52.752;6.964;2023-05-15T12:53:21;16.73;;;15.32;;
39218;SDS011;24934;52.752;6.964;2023-05-15T12:55:46;17.45;;;15.75;;
39218;SDS011;24934;52.752;6.964;2023-05-15T12:58:18;17.50;;;16.05;;
39218;SDS011;24934;52.752;6.964;2023-05-15T13:00:44;16.90;;;15.38;;
39218;SDS011;24934;52.752;6.964;2023-05-15T13:03:14;17.52;;;15.88;;
39218;SDS011;24934;52.752;6.964;2023-05-15T13:05:43;17.70;;;16.08;;
39218;SDS011;24934;52.752;6.964;2023-05-15T13:08:12;16.50;;;15.00;;
39218;SDS011;24934;52.752;6.964;2023-05-15T13:10:40;18.17;;;16.67;;
39218;SDS011;24934;52.752;6.964;2023-05-15T13:13:09;18.02;;;16.25;;
39218;SDS011;24934;52.752;6.964;2023-05-15T13:15:38;14.93;;;13.65;;
39218;SDS011;24934;52.752;6.964;2023-05-15T13:18:10;14.73;;;13.43;;
39218;SDS011;24934;52.752;6.964;2023-05-15T13:20:38;15.13;;;13.73;;
39218;SDS011;24934;52.752;6.964;2023-05-15T13:23:05;17.88;;;16.27;;
39218;SDS011;24934;52.752;6.964;2023-05-15T13:25:32;18.88;;;17.08;;
39218;SDS011;24934;52.752;6.964;2023-05-15T13:28:00;16.92;;;15.43;;
39218;SDS011;24934;52.752;6.964;2023-05-15T13:30:27;15.70;;;14.20;;
39218;SDS011;24934;52.752;6.964;2023-05-15T13:32:54;15.93;;;14.27;;
39218;SDS011;24934;52.752;6.964;2023-05-15T13:35:22;16.73;;;15.23;;
39218;SDS011;24934;52.752;6.964;2023-05-15T13:37:48;17.65;;;15.98;;
39218;SDS011;24934;52.752;6.964;2023-05-15T13:40:14;16.52;;;14.98;;
39218;SDS011;24934;52.752;6.964;2023-05-15T13:42:40;15.48;;;14.10;;
39218;SDS011;24934;52.752;6.964;2023-05-15T13:45:07;15.35;;;13.77;;
39218;SDS011;24934;52.752;6.964;2023-05-15T13:47:36;14.07;;;12.68;;
39218;SDS011;24934;52.752;6.964;2023-05-15T13:50:05;14.07;;;12.68;;
39218;SDS011;24934;52.752;6.964;2023-05-15T13:52:35;13.75;;;12.55;;
39218;SDS011;24934;52.752;6.964;2023-05-15T13:55:01;15.52;;;14.07;;
39218;SDS011;24934;52.752;6.964;2023-05-15T13:57:28;16.05;;;14.65;;
39218;SDS011;24934;52.752;6.964;2023-05-15T13:59:54;18.05;;;14.65;;
39218;SDS011;24934;52.752;6.964;2023-05-15T14:02:21;16.40;;;14.93;;
39218;SDS011;24934;52.752;6.964;2023-05-15T14:04:52;14.93;;;13.43;;
39218;SDS011;24934;52.752;6.964;2023-05-15T14:07:22;16.65;;;15.05;;
39218;SDS011;24934;52.752;6.964;2023-05-15T14:09:48;16.25;;;14.57;;
39218;SDS011;24934;52.752;6.964;2023-05-15T14:12:17;15.73;;;14.23;;
39218;SDS011;24934;52.752;6.964;2023-05-15T14:14:45;20.38;;;18.35;;
39218;SDS011;24934;52.752;6.964;2023-05-15T14:17:14;19.00;;;17.10;;
39218;SDS011;24934;52.752;6.964;2023-05-15T14:19:40;19.80;;;16.23;;
39218;SDS011;24934;52.752;6.964;2023-05-15T14:22:06;15.13;;;13.77;;
39218;SDS011;24934;52.752;6.964;2023-05-15T14:24:32;16.65;;;15.25;;
39218;SDS011;24934;52.752;6.964;2023-05-15T14:26:58;16.13;;;14.75;;
39218;SDS011;24934;52.752;6.964;2023-05-15T14:29:26;16.02;;;14.40;;
39218;SDS011;24934;52.752;6.964;2023-05-15T14:31:52;15.00;;;13.70;;
39218;SDS011;24934;52.752;6.964;2023-05-15T14:34:18;14.68;;;13.38;;
39218;SDS011;24934;52.752;6.964;2023-05-15T14:36:46;15.35;;;13.95;;
39218;SDS011;24934;52.752;6.964;2023-05-15T14:39:15;15.52;;;14.13;;